createdAt,value
2022-10-17T00:00:34.722Z,15.35
2022-10-17T00:01:46.239Z,18.05
2022-10-17T00:02:58.109Z,13.13
2022-10-17T00:04:09.574Z,10.35
2022-10-17T00:05:21.003Z,14.27
2022-10-17T00:06:32.531Z,7.85
2022-10-17T00:07:43.983Z,11.52
2022-10-17T00:08:55.440Z,9.50
2022-10-17T00:10:07.692Z,16.80
2022-10-17T00:11:21.070Z,18.38
2022-10-17T00:12:32.862Z,23.23
2022-10-17T00:13:44.807Z,26.13
2022-10-17T00:14:56.434Z,26.38
2022-10-17T00:16:08.172Z,38.17
2022-10-17T00:17:19.650Z,25.75
2022-10-17T00:18:31.085Z,49.80
2022-10-17T00:19:42.528Z,46.53
2022-10-17T00:20:53.982Z,32.72
2022-10-17T00:22:05.412Z,35.92
2022-10-17T00:23:16.950Z,45.15
2022-10-17T00:24:30.156Z,55.25
2022-10-17T00:25:41.753Z,26.08
2022-10-17T00:26:53.234Z,26.40
2022-10-17T00:28:04.801Z,26.73
2022-10-17T00:29:16.283Z,17.48
2022-10-17T00:30:27.733Z,18.40
2022-10-17T00:31:39.172Z,23.40
2022-10-17T00:32:50.802Z,16.10
2022-10-17T00:34:02.227Z,12.13
2022-10-17T00:35:13.927Z,16.77
2022-10-17T00:36:26.816Z,10.25
2022-10-17T00:37:38.560Z,17.20
2022-10-17T00:38:52.022Z,17.33
2022-10-17T00:40:04.100Z,14.85
2022-10-17T00:41:17.501Z,25.17
2022-10-17T00:42:29.168Z,17.33
2022-10-17T00:43:53.269Z,12.23
2022-10-17T00:45:13.726Z,19.25
2022-10-17T00:46:29.818Z,16.42
2022-10-17T00:47:42.063Z,17.17
2022-10-17T00:48:54.454Z,16.85
2022-10-17T00:50:06.792Z,22.23
2022-10-17T00:51:19.474Z,19.60
2022-10-17T00:52:31.318Z,7.97
2022-10-17T00:53:43.557Z,10.18
2022-10-17T00:54:58.009Z,10.23
2022-10-17T00:56:09.486Z,7.70
2022-10-17T00:57:20.985Z,10.38
2022-10-17T00:58:32.516Z,11.02
2022-10-17T00:59:45.116Z,8.40
2022-10-17T01:00:56.628Z,9.13
2022-10-17T01:02:16.599Z,9.73
2022-10-17T01:03:28.052Z,9.68
2022-10-17T01:04:41.258Z,9.30
2022-10-17T01:05:52.943Z,10.98
2022-10-17T01:07:04.474Z,8.32
2022-10-17T01:08:16.035Z,9.13
2022-10-17T01:09:27.584Z,9.95
2022-10-17T01:10:52.720Z,6.90
2022-10-17T01:12:19.321Z,6.38
2022-10-17T01:13:37.533Z,14.18
2022-10-17T01:15:04.266Z,6.88
2022-10-17T01:16:22.744Z,11.32
2022-10-17T01:17:46.637Z,11.68
2022-10-17T01:19:01.118Z,7.90
2022-10-17T01:20:42.104Z,7.38
2022-10-17T01:21:56.390Z,11.23
2022-10-17T01:23:26.218Z,11.63
2022-10-17T01:24:43.847Z,9.23
2022-10-17T01:26:00.259Z,8.00
2022-10-17T01:27:11.687Z,11.90
2022-10-17T01:30:00.931Z,12.98
2022-10-17T01:31:13.599Z,21.80
2022-10-17T01:32:35.586Z,17.88
2022-10-17T01:33:56.310Z,21.85
2022-10-17T01:35:13.391Z,28.83
2022-10-17T01:36:24.885Z,47.50
2022-10-17T01:37:39.393Z,32.70
2022-10-17T01:38:53.575Z,41.95
2022-10-17T01:40:31.413Z,31.13
2022-10-17T01:41:45.666Z,25.35
2022-10-17T01:43:05.186Z,28.33
2022-10-17T01:44:22.854Z,33.10
2022-10-17T01:45:37.347Z,25.83
2022-10-17T01:46:53.199Z,26.67
2022-10-17T01:48:07.195Z,29.17
2022-10-17T01:49:20.773Z,23.05
2022-10-17T01:50:34.339Z,29.60
2022-10-17T01:52:09.058Z,23.48
2022-10-17T01:53:32.497Z,39.38
2022-10-17T01:54:47.058Z,46.60
2022-10-17T01:56:00.607Z,43.60
2022-10-17T01:57:15.550Z,37.78
2022-10-17T01:58:30.054Z,68.78
2022-10-17T01:59:44.336Z,56.35
2022-10-17T02:00:56.482Z,68.82
2022-10-17T02:02:08.988Z,98.22
2022-10-17T02:03:21.261Z,52.63
2022-10-17T02:04:32.981Z,23.40
2022-10-17T02:05:44.903Z,27.48
2022-10-17T02:06:56.428Z,20.98
2022-10-17T02:08:08.248Z,25.65
2022-10-17T02:09:24.441Z,23.85
2022-10-17T02:10:35.882Z,26.27
2022-10-17T02:11:52.830Z,24.60
2022-10-17T02:13:09.970Z,21.08
2022-10-17T02:14:30.629Z,17.05
2022-10-17T02:15:48.299Z,19.67
2022-10-17T02:17:05.575Z,6.57
2022-10-17T02:18:31.217Z,12.07
2022-10-17T02:20:01.128Z,9.75
2022-10-17T02:21:20.162Z,8.98
2022-10-17T02:22:37.425Z,4.63
2022-10-17T02:23:55.764Z,5.78
2022-10-17T02:25:16.342Z,10.27
2022-10-17T02:26:30.622Z,11.38
2022-10-17T02:27:56.946Z,12.25
2022-10-17T02:29:11.363Z,19.80
2022-10-17T02:30:41.195Z,20.63
2022-10-17T02:32:02.986Z,18.27
2022-10-17T02:33:14.387Z,32.30
2022-10-17T02:34:34.483Z,20.42
2022-10-17T02:35:48.594Z,11.90
2022-10-17T02:37:02.068Z,18.88
2022-10-17T02:38:14.575Z,16.48
2022-10-17T02:39:27.955Z,11.82
2022-10-17T02:40:40.558Z,19.23
2022-10-17T02:41:52.838Z,17.15
2022-10-17T02:43:04.571Z,26.60
2022-10-17T02:44:16.073Z,25.65
2022-10-17T02:45:28.632Z,36.47
2022-10-17T02:46:41.540Z,30.73
2022-10-17T02:48:02.486Z,28.98
2022-10-17T02:49:18.921Z,24.98
2022-10-17T02:50:56.532Z,27.50
2022-10-17T02:52:17.264Z,20.40
2022-10-17T02:53:32.666Z,38.88
2022-10-17T02:54:48.077Z,30.08
2022-10-17T02:56:02.741Z,24.98
2022-10-17T02:57:29.443Z,27.35
2022-10-17T02:58:41.729Z,21.27
2022-10-17T02:59:53.651Z,20.30
2022-10-17T03:01:05.403Z,19.25
2022-10-17T03:02:17.000Z,18.25
2022-10-17T03:03:32.014Z,56.83
2022-10-17T03:04:44.168Z,58.72
2022-10-17T03:05:55.700Z,50.80
2022-10-17T03:07:07.217Z,63.85
2022-10-17T03:08:19.013Z,48.55
2022-10-17T03:09:30.473Z,42.60
2022-10-17T03:10:41.957Z,25.88
2022-10-17T03:11:53.531Z,29.65
2022-10-17T03:13:04.953Z,26.35
2022-10-17T03:14:16.407Z,18.42
2022-10-17T03:15:27.838Z,28.73
2022-10-17T03:16:39.391Z,28.17
2022-10-17T03:17:50.843Z,23.60
2022-10-17T03:19:02.312Z,19.88
2022-10-17T03:20:13.882Z,25.73
2022-10-17T03:21:25.394Z,24.60
2022-10-17T03:22:36.854Z,22.17
2022-10-17T03:23:48.301Z,23.45
2022-10-17T03:24:59.750Z,23.55
2022-10-17T03:26:11.274Z,26.33
2022-10-17T03:27:22.739Z,20.98
2022-10-17T03:28:34.460Z,28.55
2022-10-17T03:29:45.976Z,28.02
2022-10-17T03:30:57.428Z,35.15
2022-10-17T03:32:08.886Z,24.80
2022-10-17T03:33:20.325Z,30.70
2022-10-17T03:34:31.773Z,37.15
2022-10-17T03:35:43.293Z,23.55
2022-10-17T03:36:54.749Z,17.33
2022-10-17T03:38:06.221Z,15.95
2022-10-17T03:39:17.679Z,19.23
2022-10-17T03:40:29.117Z,13.38
2022-10-17T03:41:40.957Z,14.00
2022-10-17T03:42:52.437Z,13.90
2022-10-17T03:44:03.974Z,11.10
2022-10-17T03:45:15.453Z,16.92
2022-10-17T03:46:27.038Z,16.10
2022-10-17T03:47:38.540Z,18.85
2022-10-17T03:48:50.044Z,14.48
2022-10-17T03:50:01.462Z,16.77
2022-10-17T03:51:13.000Z,13.90
2022-10-17T03:52:24.440Z,15.68
2022-10-17T03:53:36.152Z,23.40
2022-10-17T03:54:47.661Z,20.67
2022-10-17T03:56:08.915Z,16.48
2022-10-17T03:57:20.370Z,21.75
2022-10-17T03:58:31.785Z,17.30
2022-10-17T03:59:43.299Z,16.67
2022-10-17T04:00:55.040Z,26.75
2022-10-17T04:02:06.489Z,18.95
2022-10-17T04:03:17.946Z,20.02
2022-10-17T04:04:29.364Z,25.45
2022-10-17T04:05:41.041Z,29.77
2022-10-17T04:06:52.531Z,33.97
2022-10-17T04:08:04.895Z,34.70
2022-10-17T04:09:16.706Z,32.53
2022-10-17T04:10:28.225Z,39.97
2022-10-17T04:11:39.964Z,29.67
2022-10-17T04:12:51.435Z,29.20
2022-10-17T04:14:02.982Z,25.88
2022-10-17T04:15:14.977Z,21.95
2022-10-17T04:16:26.819Z,24.83
2022-10-17T04:17:38.467Z,21.83
2022-10-17T04:18:53.222Z,21.52
2022-10-17T04:20:04.940Z,33.85
2022-10-17T04:21:16.613Z,46.80
2022-10-17T04:22:28.213Z,39.08
2022-10-17T04:23:39.947Z,34.50
2022-10-17T04:24:51.384Z,42.10
2022-10-17T04:26:03.608Z,81.20
2022-10-17T04:27:15.138Z,77.50
2022-10-17T04:28:27.243Z,42.22
2022-10-17T04:29:38.827Z,44.80
2022-10-17T04:31:00.003Z,40.22
2022-10-17T04:32:11.507Z,38.85
2022-10-17T04:33:22.950Z,26.30
2022-10-17T04:34:34.427Z,24.38
2022-10-17T04:35:54.612Z,29.52
2022-10-17T04:37:06.109Z,25.60
2022-10-17T04:38:17.572Z,25.95
2022-10-17T04:39:29.773Z,42.58
2022-10-17T04:40:41.224Z,36.90
2022-10-17T04:41:52.693Z,32.30
2022-10-17T04:43:04.164Z,39.60
2022-10-17T04:44:15.645Z,37.40
2022-10-17T04:45:27.084Z,38.55
2022-10-17T04:46:38.581Z,35.40
2022-10-17T04:47:50.001Z,44.38
2022-10-17T04:49:01.507Z,31.27
2022-10-17T04:50:12.975Z,26.10
2022-10-17T04:51:26.548Z,30.45
2022-10-17T04:52:38.324Z,30.17
2022-10-17T04:53:49.823Z,44.35
2022-10-17T04:55:01.282Z,37.60
2022-10-17T04:56:14.251Z,31.35
2022-10-17T04:57:25.760Z,37.60
2022-10-17T04:58:37.539Z,30.98
2022-10-17T04:59:48.981Z,32.53
2022-10-17T05:01:04.183Z,51.38
2022-10-17T05:02:15.955Z,42.03
2022-10-17T05:03:27.379Z,48.55
2022-10-17T05:04:38.818Z,42.20
2022-10-17T05:05:50.246Z,47.13
2022-10-17T05:07:01.922Z,32.50
2022-10-17T05:08:13.570Z,35.95
2022-10-17T05:09:25.645Z,43.58
2022-10-17T05:10:37.740Z,35.83
2022-10-17T05:11:49.192Z,31.13
2022-10-17T05:13:00.637Z,40.10
2022-10-17T05:14:12.133Z,37.67
2022-10-17T05:15:23.626Z,33.92
2022-10-17T05:16:35.832Z,29.45
2022-10-17T05:17:47.274Z,33.08
2022-10-17T05:18:59.179Z,25.25
2022-10-17T05:20:10.996Z,28.65
2022-10-17T05:21:23.708Z,18.95
2022-10-17T05:22:38.302Z,21.05
2022-10-17T05:23:52.902Z,18.38
2022-10-17T05:25:04.501Z,23.98
2022-10-17T05:26:16.135Z,23.80
2022-10-17T05:27:27.602Z,21.20
2022-10-17T05:28:39.172Z,21.73
2022-10-17T05:29:50.613Z,14.45
2022-10-17T05:31:05.850Z,14.32
2022-10-17T05:32:17.523Z,14.60
2022-10-17T05:33:29.014Z,11.15
2022-10-17T05:34:40.434Z,10.38
2022-10-17T05:35:51.885Z,12.48
2022-10-17T05:37:03.338Z,13.27
2022-10-17T05:38:14.872Z,21.90
2022-10-17T05:39:26.343Z,18.98
2022-10-17T05:40:39.461Z,12.10
2022-10-17T05:41:52.437Z,7.70
2022-10-17T05:43:03.949Z,12.68
2022-10-17T05:44:15.419Z,7.38
2022-10-17T05:45:26.882Z,9.43
2022-10-17T05:46:38.354Z,8.70
2022-10-17T05:47:49.861Z,12.43
2022-10-17T05:49:01.366Z,12.95
2022-10-17T05:50:12.857Z,8.68
2022-10-17T05:51:24.335Z,7.15
2022-10-17T05:52:36.117Z,9.27
2022-10-17T05:53:47.667Z,7.72
2022-10-17T05:54:59.185Z,11.45
2022-10-17T05:56:11.884Z,7.63
2022-10-17T05:57:25.230Z,5.05
2022-10-17T05:58:49.829Z,8.15
2022-10-17T06:00:02.302Z,13.57
2022-10-17T06:01:13.811Z,7.82
2022-10-17T06:02:25.494Z,8.85
2022-10-17T06:03:37.056Z,7.57
2022-10-17T06:04:50.272Z,9.85
2022-10-17T06:06:08.802Z,8.27
2022-10-17T06:07:20.302Z,9.52
2022-10-17T06:08:31.980Z,11.05
2022-10-17T06:09:43.488Z,12.45
2022-10-17T06:10:54.921Z,8.25
2022-10-17T06:12:06.806Z,6.90
2022-10-17T06:13:18.510Z,10.20
2022-10-17T06:14:29.961Z,12.52
2022-10-17T06:15:41.429Z,11.77
2022-10-17T06:16:52.853Z,12.60
2022-10-17T06:18:04.381Z,17.88
2022-10-17T06:19:15.935Z,19.42
2022-10-17T06:20:27.353Z,17.90
2022-10-17T06:21:39.035Z,15.23
2022-10-17T06:22:50.549Z,8.88
2022-10-17T06:24:02.137Z,8.15
2022-10-17T06:25:13.649Z,6.30
2022-10-17T06:26:25.105Z,10.10
2022-10-17T06:27:36.524Z,14.65
2022-10-17T06:28:48.148Z,8.82
2022-10-17T06:29:59.583Z,8.93
2022-10-17T06:31:15.516Z,8.43
2022-10-17T06:32:27.355Z,15.13
2022-10-17T06:33:39.013Z,12.70
2022-10-17T06:34:50.447Z,10.35
2022-10-17T06:36:01.939Z,13.45
2022-10-17T06:37:13.417Z,11.43
2022-10-17T06:38:24.903Z,13.57
2022-10-17T06:39:36.510Z,15.23
2022-10-17T06:40:47.977Z,10.60
2022-10-17T06:42:00.474Z,10.82
2022-10-17T06:43:12.029Z,13.50
2022-10-17T06:44:25.376Z,9.98
2022-10-17T06:45:38.611Z,12.50
2022-10-17T06:46:50.112Z,8.60
2022-10-17T06:48:02.161Z,10.00
2022-10-17T06:49:13.707Z,12.60
2022-10-17T06:50:27.094Z,9.95
2022-10-17T06:51:38.526Z,8.30
2022-10-17T06:52:52.914Z,9.68
2022-10-17T06:54:04.658Z,5.95
2022-10-17T06:55:19.591Z,8.07
2022-10-17T06:56:34.262Z,5.75
2022-10-17T06:57:45.685Z,7.75
2022-10-17T06:58:57.116Z,10.32
2022-10-17T07:00:08.889Z,5.47
2022-10-17T07:01:20.646Z,7.57
2022-10-17T07:02:32.290Z,11.70
2022-10-17T07:03:44.106Z,21.13
2022-10-17T07:04:59.317Z,9.52
2022-10-17T07:06:13.413Z,5.60
2022-10-17T07:07:25.071Z,6.25
2022-10-17T07:08:36.835Z,6.10
2022-10-17T07:09:48.273Z,6.43
2022-10-17T07:10:59.715Z,8.35
2022-10-17T07:12:12.827Z,8.18
2022-10-17T07:13:25.006Z,6.65
2022-10-17T07:14:36.530Z,9.43
2022-10-17T07:15:48.079Z,7.45
2022-10-17T07:17:01.946Z,4.80
2022-10-17T07:18:13.628Z,5.75
2022-10-17T07:19:25.410Z,6.95
2022-10-17T07:20:37.102Z,6.88
2022-10-17T07:21:49.254Z,8.10
2022-10-17T07:23:00.700Z,4.60
2022-10-17T07:24:12.206Z,4.50
2022-10-17T07:25:23.707Z,8.70
2022-10-17T07:26:35.209Z,8.48
2022-10-17T07:27:48.334Z,9.90
2022-10-17T07:28:59.820Z,8.57
2022-10-17T07:30:11.574Z,6.70
2022-10-17T07:31:23.243Z,6.82
2022-10-17T07:32:34.718Z,5.75
2022-10-17T07:35:02.747Z,7.03
2022-10-17T07:36:14.465Z,7.55
2022-10-17T07:37:28.767Z,5.07
2022-10-17T07:38:43.309Z,8.85
2022-10-17T07:39:59.509Z,4.38
2022-10-17T07:41:17.770Z,8.45
2022-10-17T07:42:33.023Z,6.10
2022-10-17T07:43:44.568Z,4.53
2022-10-17T07:44:56.021Z,7.22
2022-10-17T07:46:08.388Z,7.22
2022-10-17T07:47:19.952Z,7.30
2022-10-17T07:48:31.388Z,6.90
2022-10-17T07:49:45.456Z,8.10
2022-10-17T07:50:56.881Z,3.53
2022-10-17T07:52:12.154Z,5.75
2022-10-17T07:53:23.640Z,6.53
2022-10-17T07:54:35.061Z,4.50
2022-10-17T07:55:47.961Z,5.55
2022-10-17T07:56:59.393Z,5.15
2022-10-17T07:58:10.873Z,7.80
2022-10-17T07:59:24.725Z,5.20
2022-10-17T08:00:39.315Z,5.85
2022-10-17T08:01:52.893Z,7.43
2022-10-17T08:03:04.814Z,4.10
2022-10-17T08:04:17.083Z,4.88
2022-10-17T08:05:28.967Z,6.00
2022-10-17T08:06:40.409Z,4.15
2022-10-17T08:07:52.113Z,5.35
2022-10-17T08:09:03.700Z,4.47
2022-10-17T08:10:16.177Z,5.18
2022-10-17T08:11:27.858Z,7.28
2022-10-17T08:12:39.331Z,7.68
2022-10-17T08:13:50.837Z,14.60
2022-10-17T08:15:02.302Z,4.82
2022-10-17T08:16:14.955Z,7.68
2022-10-17T08:17:26.493Z,8.57
2022-10-17T08:18:39.125Z,5.50
2022-10-17T08:19:50.726Z,4.90
2022-10-17T08:21:03.573Z,5.72
2022-10-17T08:22:17.185Z,6.32
2022-10-17T08:23:28.970Z,8.63
2022-10-17T08:24:40.472Z,5.88
2022-10-17T08:25:51.953Z,6.03
2022-10-17T08:27:04.856Z,7.50
2022-10-17T08:28:16.307Z,4.88
2022-10-17T08:29:28.022Z,5.07
2022-10-17T08:30:39.528Z,7.85
2022-10-17T08:31:58.511Z,5.35
2022-10-17T08:33:12.972Z,4.38
2022-10-17T08:34:24.429Z,7.53
2022-10-17T08:35:35.999Z,3.65
2022-10-17T08:36:47.498Z,4.47
2022-10-17T08:38:01.525Z,4.93
2022-10-17T08:39:13.038Z,4.93
2022-10-17T08:40:26.184Z,6.45
2022-10-17T08:41:37.593Z,4.55
2022-10-17T08:42:51.826Z,5.40
2022-10-17T08:44:13.061Z,4.97
2022-10-17T08:45:32.482Z,3.30
2022-10-17T08:46:45.224Z,7.35
2022-10-17T08:47:58.997Z,6.47
2022-10-17T08:49:13.226Z,4.28
2022-10-17T08:50:30.540Z,5.37
2022-10-17T08:51:47.714Z,4.75
2022-10-17T08:53:18.106Z,4.85
2022-10-17T08:54:32.293Z,4.20
2022-10-17T08:55:48.514Z,6.15
2022-10-17T08:56:59.957Z,4.50
2022-10-17T08:58:15.548Z,4.05
2022-10-17T08:59:28.106Z,4.80
2022-10-17T09:00:41.356Z,5.20
2022-10-17T09:01:58.744Z,4.67
2022-10-17T09:03:10.617Z,5.55
2022-10-17T09:04:24.961Z,5.43
2022-10-17T09:05:39.379Z,5.03
2022-10-17T09:07:06.000Z,8.00
2022-10-17T09:08:20.500Z,8.90
2022-10-17T09:09:34.912Z,9.40
2022-10-17T09:10:52.719Z,19.87
2022-10-17T09:12:24.935Z,21.20
2022-10-17T09:13:48.378Z,18.97
2022-10-17T09:14:59.832Z,21.92
2022-10-17T09:16:14.151Z,19.57
2022-10-17T09:17:32.960Z,13.00
2022-10-17T09:18:47.798Z,9.50
2022-10-17T09:19:59.216Z,11.07
2022-10-17T09:21:10.676Z,8.60
2022-10-17T09:22:24.905Z,8.80
2022-10-17T09:23:47.231Z,7.60
2022-10-17T09:25:02.703Z,6.13
2022-10-17T09:26:14.343Z,7.90
2022-10-17T09:27:25.837Z,6.13
2022-10-17T09:28:38.675Z,11.43
2022-10-17T09:29:54.675Z,9.17
2022-10-17T09:31:13.545Z,6.77
2022-10-17T09:32:28.341Z,7.37
2022-10-17T09:33:58.957Z,6.10
2022-10-17T09:35:17.569Z,13.23
2022-10-17T09:36:30.151Z,16.70
2022-10-17T09:37:41.987Z,14.87
2022-10-17T09:39:05.124Z,6.27
2022-10-17T09:40:19.842Z,6.43
2022-10-17T09:41:46.924Z,8.27
2022-10-17T09:43:03.939Z,7.37
2022-10-17T09:44:15.381Z,9.13
2022-10-17T09:45:28.355Z,5.23
2022-10-17T09:46:41.981Z,9.27
2022-10-17T09:47:58.434Z,4.97
2022-10-17T09:49:20.016Z,3.97
2022-10-17T09:50:33.832Z,3.43
2022-10-17T09:51:48.139Z,3.33
2022-10-17T09:53:03.201Z,3.60
2022-10-17T09:54:23.305Z,3.07
2022-10-17T09:55:40.594Z,2.57
2022-10-17T09:57:01.659Z,5.63
2022-10-17T09:58:13.125Z,4.70
2022-10-17T09:59:43.525Z,3.67
2022-10-17T10:01:21.093Z,4.87
2022-10-17T10:02:40.849Z,3.73
2022-10-17T10:04:11.608Z,2.03
2022-10-17T10:05:23.131Z,3.57
2022-10-17T10:06:35.052Z,2.77
2022-10-17T10:08:02.942Z,8.70
2022-10-17T10:10:38.940Z,2.87
2022-10-17T10:11:52.117Z,4.17
2022-10-17T10:13:05.576Z,3.13
2022-10-17T10:14:20.080Z,5.40
2022-10-17T10:15:33.877Z,3.27
2022-10-17T10:16:47.339Z,3.97
2022-10-17T10:17:58.881Z,3.47
2022-10-17T10:19:32.112Z,3.37
2022-10-17T10:20:46.934Z,3.13
2022-10-17T10:22:02.940Z,3.53
2022-10-17T10:23:17.268Z,4.50
2022-10-17T10:24:30.980Z,3.30
2022-10-17T10:26:12.463Z,6.60
2022-10-17T10:27:24.228Z,3.20
2022-10-17T10:28:36.291Z,2.90
2022-10-17T10:29:53.376Z,6.47
2022-10-17T10:32:36.879Z,4.33
2022-10-17T10:33:50.932Z,2.43
2022-10-17T10:35:11.747Z,2.73
2022-10-17T10:36:23.358Z,3.10
2022-10-17T10:37:46.123Z,3.00
2022-10-17T10:39:01.214Z,2.53
2022-10-17T10:40:23.658Z,2.73
2022-10-17T10:41:46.400Z,2.90
2022-10-17T10:43:03.998Z,4.83
2022-10-17T10:44:17.699Z,5.90
2022-10-17T10:45:48.055Z,3.37
2022-10-17T10:47:07.071Z,4.17
2022-10-17T10:48:24.337Z,3.20
2022-10-17T10:49:36.194Z,4.07
2022-10-17T10:50:57.067Z,2.77
2022-10-17T10:52:10.524Z,2.90
2022-10-17T10:53:40.303Z,2.33
2022-10-17T10:54:56.305Z,3.03
2022-10-17T10:56:13.596Z,2.67
2022-10-17T10:57:27.822Z,3.63
2022-10-17T10:58:42.097Z,2.50
2022-10-17T11:00:12.993Z,5.63
2022-10-17T11:01:28.833Z,4.30
2022-10-17T11:02:46.360Z,4.17
2022-10-17T11:04:01.716Z,2.87
2022-10-17T11:05:27.765Z,2.47
2022-10-17T11:06:42.628Z,3.37
2022-10-17T11:08:06.557Z,3.20
2022-10-17T11:09:33.903Z,5.17
2022-10-17T11:11:07.228Z,2.00
2022-10-17T11:12:21.782Z,3.57
2022-10-17T11:13:44.747Z,4.60
2022-10-17T11:15:20.729Z,3.13
2022-10-17T11:16:54.646Z,3.40
2022-10-17T11:18:19.678Z,3.10
2022-10-17T11:19:40.297Z,3.40
2022-10-17T11:21:12.042Z,3.97
2022-10-17T11:22:38.242Z,4.30
2022-10-17T11:24:09.116Z,3.83
2022-10-17T11:25:35.373Z,3.37
2022-10-17T11:26:51.663Z,3.20
2022-10-17T11:28:05.837Z,2.57
2022-10-17T11:29:17.348Z,2.53
2022-10-17T11:30:32.523Z,2.90
2022-10-17T11:31:47.428Z,3.57
2022-10-17T11:33:00.719Z,4.37
2022-10-17T11:34:19.512Z,4.73
2022-10-17T11:35:34.204Z,3.73
2022-10-17T11:36:47.005Z,3.13
2022-10-17T11:38:06.079Z,2.70
2022-10-17T11:39:23.607Z,2.53
2022-10-17T11:40:36.700Z,1.87
2022-10-17T11:41:51.926Z,2.50
2022-10-17T11:43:04.016Z,3.77
2022-10-17T11:44:19.775Z,4.33
2022-10-17T11:45:35.167Z,4.80
2022-10-17T11:46:48.435Z,3.13
2022-10-17T11:48:06.404Z,4.50
2022-10-17T11:49:40.621Z,2.47
2022-10-17T11:52:56.436Z,40.13
2022-10-17T11:54:26.704Z,36.87
2022-10-17T11:55:38.809Z,21.33
2022-10-17T11:57:12.708Z,4.87
2022-10-17T11:58:43.679Z,2.57
2022-10-17T12:00:04.172Z,5.17
2022-10-17T12:01:32.889Z,2.27
2022-10-17T12:03:03.069Z,4.73
2022-10-17T12:04:17.297Z,3.47
2022-10-17T12:05:34.191Z,3.10
2022-10-17T12:07:04.357Z,2.87
2022-10-17T12:08:21.265Z,1.90
2022-10-17T12:09:38.777Z,3.17
2022-10-17T12:11:01.077Z,5.70
2022-10-17T12:12:24.266Z,3.80
2022-10-17T12:13:41.204Z,3.23
2022-10-17T12:14:53.021Z,2.00
2022-10-17T12:16:21.801Z,6.83
2022-10-17T12:17:35.419Z,27.37
2022-10-17T12:18:48.025Z,22.57
2022-10-17T12:20:17.435Z,19.80
2022-10-17T12:21:31.464Z,18.27
2022-10-17T12:23:09.782Z,14.83
2022-10-17T12:24:41.686Z,7.73
2022-10-17T12:26:05.955Z,3.03
2022-10-17T12:27:36.041Z,2.20
2022-10-17T12:28:48.262Z,2.60
2022-10-17T12:30:14.350Z,2.10
2022-10-17T12:31:33.442Z,1.70
2022-10-17T12:33:07.578Z,3.63
2022-10-17T12:34:22.313Z,3.63
2022-10-17T12:35:34.666Z,2.87
2022-10-17T12:36:46.199Z,17.47
2022-10-17T12:38:01.906Z,6.77
2022-10-17T12:39:17.622Z,3.53
2022-10-17T12:40:34.914Z,2.47
2022-10-17T12:41:46.602Z,2.83
2022-10-17T12:43:00.828Z,3.07
2022-10-17T12:44:15.406Z,1.93
2022-10-17T12:45:47.005Z,3.53
2022-10-17T12:46:58.690Z,2.80
2022-10-17T12:48:10.425Z,1.73
2022-10-17T12:49:24.978Z,2.03
2022-10-17T12:51:12.180Z,4.33
2022-10-17T12:52:34.830Z,3.73
2022-10-17T12:53:46.431Z,4.57
2022-10-17T12:55:18.056Z,3.43
2022-10-17T12:56:56.010Z,6.47
2022-10-17T12:58:12.834Z,6.30
2022-10-17T12:59:25.308Z,4.73
2022-10-17T13:01:11.592Z,7.00
2022-10-17T13:02:25.437Z,1.83
2022-10-17T13:03:42.239Z,2.10
2022-10-17T13:04:59.118Z,2.77
2022-10-17T13:06:37.966Z,2.47
2022-10-17T13:07:50.062Z,5.23
2022-10-17T13:09:07.017Z,3.90
2022-10-17T13:10:23.401Z,6.50
2022-10-17T13:11:36.215Z,4.77
2022-10-17T13:12:47.943Z,20.57
2022-10-17T13:14:00.791Z,18.37
2022-10-17T13:15:16.057Z,23.67
2022-10-17T13:16:28.748Z,8.20
2022-10-17T13:17:43.032Z,8.23
2022-10-17T13:18:55.604Z,4.60
2022-10-17T13:20:27.673Z,5.07
2022-10-17T13:21:52.542Z,3.03
2022-10-17T13:23:04.239Z,3.50
2022-10-17T13:24:24.754Z,4.47
2022-10-17T13:25:38.890Z,2.60
2022-10-17T13:26:51.131Z,4.87
2022-10-17T13:28:08.133Z,5.37
2022-10-17T13:29:21.907Z,3.97
2022-10-17T13:30:36.486Z,2.77
2022-10-17T13:31:53.323Z,3.53
2022-10-17T13:33:16.142Z,1.70
2022-10-17T13:34:27.984Z,3.77
2022-10-17T13:36:00.587Z,1.73
2022-10-17T13:37:13.469Z,3.07
2022-10-17T13:38:29.378Z,3.77
2022-10-17T13:39:54.805Z,2.97
2022-10-17T13:41:34.298Z,3.10
2022-10-17T13:42:43.472Z,3.00
2022-10-17T13:44:00.324Z,4.93
2022-10-17T13:45:25.876Z,3.70
2022-10-17T13:46:39.826Z,3.80
2022-10-17T13:47:51.474Z,3.97
2022-10-17T13:49:09.543Z,2.73
2022-10-17T13:50:43.213Z,3.30
2022-10-17T13:51:56.244Z,6.77
2022-10-17T13:53:13.829Z,2.60
2022-10-17T13:54:29.515Z,1.57
2022-10-17T13:56:09.074Z,2.53
2022-10-17T13:57:24.547Z,5.93
2022-10-17T13:58:42.924Z,5.53
2022-10-17T14:00:02.895Z,5.73
2022-10-17T14:01:15.155Z,3.00
2022-10-17T14:02:27.937Z,2.80
2022-10-17T14:03:48.492Z,5.73
2022-10-17T14:05:20.043Z,9.80
2022-10-17T14:06:32.082Z,2.73
2022-10-17T14:08:09.443Z,2.63
2022-10-17T14:09:18.130Z,4.27
2022-10-17T14:10:37.516Z,2.47
2022-10-17T14:12:10.675Z,3.03
2022-10-17T14:13:29.054Z,5.37
2022-10-17T14:15:05.146Z,2.63
2022-10-17T14:16:15.212Z,12.03
2022-10-17T14:17:28.908Z,4.00
2022-10-17T14:18:40.847Z,3.53
2022-10-17T14:20:14.072Z,3.83
2022-10-17T14:21:43.430Z,3.17
2022-10-17T14:23:21.392Z,1.90
2022-10-17T14:24:29.128Z,5.93
2022-10-17T14:25:40.829Z,2.90
2022-10-17T14:26:53.572Z,5.30
2022-10-17T14:28:09.539Z,2.30
2022-10-17T14:29:20.936Z,4.37
2022-10-17T14:30:55.790Z,5.07
2022-10-17T14:32:10.932Z,7.93
2022-10-17T14:33:27.707Z,2.87
2022-10-17T14:34:42.584Z,2.80
2022-10-17T14:35:55.457Z,9.17
2022-10-17T14:37:11.438Z,2.97
2022-10-17T14:38:23.103Z,2.80
2022-10-17T14:39:34.549Z,3.17
2022-10-17T14:40:49.976Z,2.90
2022-10-17T14:42:04.431Z,2.30
2022-10-17T14:43:20.681Z,2.93
2022-10-17T14:44:33.840Z,4.67
2022-10-17T14:45:46.020Z,1.90
2022-10-17T14:47:18.278Z,3.27
2022-10-17T14:48:33.438Z,1.57
2022-10-17T14:49:49.120Z,4.10
2022-10-17T14:51:09.670Z,2.27
2022-10-17T14:52:28.036Z,2.90
2022-10-17T14:53:40.030Z,4.17
2022-10-17T14:54:51.903Z,4.60
2022-10-17T14:56:21.937Z,3.87
2022-10-17T14:57:33.348Z,3.37
2022-10-17T14:58:44.804Z,2.97
2022-10-17T14:59:57.122Z,3.57
2022-10-17T15:01:08.633Z,4.37
2022-10-17T15:02:20.127Z,3.60
2022-10-17T15:03:31.757Z,3.30
2022-10-17T15:04:43.216Z,2.47
2022-10-17T15:05:55.313Z,3.00
2022-10-17T15:07:06.885Z,3.07
2022-10-17T15:08:19.298Z,6.33
2022-10-17T15:09:31.189Z,3.97
2022-10-17T15:10:43.603Z,6.87
2022-10-17T15:12:05.236Z,9.87
2022-10-17T15:13:27.742Z,21.43
2022-10-17T15:14:39.934Z,14.63
2022-10-17T15:15:52.411Z,17.10
2022-10-17T15:17:08.992Z,11.37
2022-10-17T15:18:20.478Z,10.40
2022-10-17T15:19:31.905Z,8.33
2022-10-17T15:20:43.484Z,13.07
2022-10-17T15:21:54.940Z,8.20
2022-10-17T15:23:06.710Z,16.63
2022-10-17T15:24:18.214Z,9.77
2022-10-17T15:25:30.509Z,9.43
2022-10-17T15:26:42.107Z,8.03
2022-10-17T15:27:53.978Z,7.10
2022-10-17T15:29:05.557Z,10.10
2022-10-17T15:30:21.779Z,8.40
2022-10-17T15:31:35.383Z,6.57
2022-10-17T15:32:46.892Z,4.47
2022-10-17T15:33:58.361Z,4.00
2022-10-17T15:35:12.061Z,3.33
2022-10-17T15:36:23.615Z,4.13
2022-10-17T15:37:35.175Z,9.47
2022-10-17T15:38:46.736Z,7.73
2022-10-17T15:39:58.283Z,8.17
2022-10-17T15:41:12.405Z,6.33
2022-10-17T15:42:27.678Z,10.63
2022-10-17T15:43:39.184Z,8.93
2022-10-17T15:44:50.714Z,8.03
2022-10-17T15:46:02.162Z,5.77
2022-10-17T15:47:24.729Z,7.57
2022-10-17T15:48:36.154Z,11.60
2022-10-17T15:49:47.685Z,9.93
2022-10-17T15:50:59.176Z,12.40
2022-10-17T15:52:10.922Z,8.00
2022-10-17T15:53:23.690Z,9.57
2022-10-17T15:54:35.118Z,5.70
2022-10-17T15:55:50.130Z,15.97
2022-10-17T15:57:01.564Z,40.77
2022-10-17T15:58:15.252Z,31.60
2022-10-17T15:59:30.369Z,10.70
2022-10-17T16:00:41.917Z,7.37
2022-10-17T16:01:53.465Z,9.80
2022-10-17T16:03:04.904Z,4.43
2022-10-17T16:04:17.146Z,11.60
2022-10-17T16:05:29.756Z,11.90
2022-10-17T16:06:41.985Z,13.50
2022-10-17T16:07:53.731Z,11.33
2022-10-17T16:09:05.396Z,9.53
2022-10-17T16:10:17.151Z,9.13
2022-10-17T16:11:33.433Z,12.50
2022-10-17T16:12:45.260Z,11.90
2022-10-17T16:13:58.290Z,13.07
2022-10-17T16:15:29.273Z,16.53
2022-10-17T16:16:40.931Z,23.50
2022-10-17T16:17:53.175Z,14.17
2022-10-17T16:19:04.804Z,14.50
2022-10-17T16:20:19.763Z,12.77
2022-10-17T16:21:33.587Z,16.73
2022-10-17T16:22:45.442Z,8.50
2022-10-17T16:23:57.701Z,10.47
2022-10-17T16:25:19.657Z,9.87
2022-10-17T16:26:31.572Z,9.60
2022-10-17T16:27:43.454Z,7.37
2022-10-17T16:28:58.336Z,7.03
2022-10-17T16:30:09.924Z,4.87
2022-10-17T16:31:25.915Z,4.80
2022-10-17T16:32:37.451Z,5.93
2022-10-17T16:33:50.650Z,4.43
2022-10-17T16:35:02.137Z,4.87
2022-10-17T16:36:13.631Z,4.03